createdAt,value
2023-01-22T00:01:25.586Z,99457.34
2023-01-22T00:03:54.754Z,99454.06
2023-01-22T00:06:25.146Z,99454.72
2023-01-22T00:08:54.308Z,99448.63
2023-01-22T00:11:22.368Z,99455.66
2023-01-22T00:13:51.396Z,99440.84
2023-01-22T00:16:20.267Z,99441.19
2023-01-22T00:18:49.607Z,99440.19
2023-01-22T00:21:19.556Z,99436.88
2023-01-22T00:23:47.424Z,99441.78
2023-01-22T00:26:18.386Z,99434.84
2023-01-22T00:28:46.856Z,99433.78
2023-01-22T00:31:16.688Z,99429.88
2023-01-22T00:33:45.270Z,99432.44
2023-01-22T00:36:16.522Z,99429.22
2023-01-22T00:38:44.745Z,99433.97
2023-01-22T00:41:15.384Z,99432.56
2023-01-22T00:43:43.519Z,99429.22
2023-01-22T00:46:14.957Z,99427.09
2023-01-22T00:48:45.203Z,99430.25
2023-01-22T00:51:15.609Z,99432.38
2023-01-22T00:53:44.661Z,99427.97
2023-01-22T00:56:14.585Z,99425.47
2023-01-22T00:58:44.907Z,99416.44
2023-01-22T01:01:14.632Z,99424.88
2023-01-22T01:03:42.940Z,99424.19
2023-01-22T01:06:15.368Z,99422.47
2023-01-22T01:08:44.855Z,99426.63
2023-01-22T01:11:16.627Z,99430.97
2023-01-22T01:13:45.690Z,99431.06
2023-01-22T01:16:15.851Z,99432.72
2023-01-22T01:18:44.424Z,99422.75
2023-01-22T01:21:14.399Z,99428.53
2023-01-22T01:23:42.699Z,99425.63
2023-01-22T01:26:15.273Z,99423.75
2023-01-22T01:28:45.251Z,99419.56
2023-01-22T01:31:15.600Z,99425.72
2023-01-22T01:33:44.250Z,99418.59
2023-01-22T01:36:15.324Z,99425.56
2023-01-22T01:38:43.936Z,99426.53
2023-01-22T01:41:15.481Z,99425.34
2023-01-22T01:43:44.086Z,99418.94
2023-01-22T01:46:19.857Z,99413.28
2023-01-22T01:48:49.826Z,99410.25
2023-01-22T01:51:24.261Z,99416.38
2023-01-22T01:53:52.840Z,99413.84
2023-01-22T01:56:27.366Z,99415.47
2023-01-22T01:59:00.208Z,99416.91
2023-01-22T02:01:29.134Z,99409.47
2023-01-22T02:03:57.016Z,99421.03
2023-01-22T02:06:26.412Z,99411.31
2023-01-22T02:08:55.922Z,99407.72
2023-01-22T02:11:24.257Z,99412.44
2023-01-22T02:13:58.353Z,99408.59
2023-01-22T02:16:28.130Z,99413.53
2023-01-22T02:18:56.439Z,99412.09
2023-01-22T02:21:40.275Z,99412.84
2023-01-22T02:24:10.365Z,99407.41
2023-01-22T02:26:40.020Z,99407.97
2023-01-22T02:29:10.383Z,99416.13
2023-01-22T02:31:41.105Z,99404.72
2023-01-22T02:34:10.325Z,99409.50
2023-01-22T02:36:41.870Z,99402.69
2023-01-22T02:39:09.724Z,99400.91
2023-01-22T02:41:39.308Z,99414.75
2023-01-22T02:44:07.688Z,99408.31
2023-01-22T02:46:36.414Z,99409.97
2023-01-22T02:49:04.437Z,99409.09
2023-01-22T02:51:33.745Z,99403.91
2023-01-22T02:54:02.946Z,99414.31
2023-01-22T02:56:30.966Z,99416.38
2023-01-22T02:59:01.267Z,99414.69
2023-01-22T03:01:29.374Z,99404.28
2023-01-22T03:04:01.916Z,99407.41
2023-01-22T03:06:30.927Z,99404.03
2023-01-22T03:09:02.712Z,99400.91
2023-01-22T03:11:38.114Z,99392.53
2023-01-22T03:14:28.552Z,99395.75
2023-01-22T03:17:14.196Z,99400.69
2023-01-22T03:19:59.995Z,99396.75
2023-01-22T03:22:28.355Z,99396.47
2023-01-22T03:25:01.284Z,99400.22
2023-01-22T03:27:31.791Z,99398.13
2023-01-22T03:29:59.742Z,99403.25
2023-01-22T03:32:29.691Z,99398.81
2023-01-22T03:34:57.660Z,99401.31
2023-01-22T03:37:29.057Z,99402.16
2023-01-22T03:40:01.046Z,99392.41
2023-01-22T03:42:38.351Z,99405.94
2023-01-22T03:45:10.765Z,99400.66
2023-01-22T03:47:39.030Z,99403.31
2023-01-22T03:50:20.991Z,99402.19
2023-01-22T03:52:48.816Z,99402.47
2023-01-22T03:55:18.167Z,99406.81
2023-01-22T03:57:46.226Z,99396.19
2023-01-22T04:00:15.981Z,99398.44
2023-01-22T04:02:44.408Z,99400.00
2023-01-22T04:05:20.469Z,99400.09
2023-01-22T04:07:50.392Z,99400.13
2023-01-22T04:10:21.930Z,99399.66
2023-01-22T04:12:50.408Z,99400.59
2023-01-22T04:15:21.860Z,99403.94
2023-01-22T04:17:53.289Z,99402.94
2023-01-22T04:20:31.661Z,99404.44
2023-01-22T04:23:20.694Z,99413.50
2023-01-22T04:25:51.350Z,99405.66
2023-01-22T04:28:20.557Z,99405.53
2023-01-22T04:30:53.918Z,99402.69
2023-01-22T04:33:42.750Z,99394.00
2023-01-22T04:36:15.920Z,99400.16
2023-01-22T04:38:43.973Z,99406.38
2023-01-22T04:41:15.513Z,99407.25
2023-01-22T04:43:44.366Z,99413.59
2023-01-22T04:46:12.340Z,99411.72
2023-01-22T04:48:40.355Z,99414.25
2023-01-22T04:51:08.263Z,99409.50
2023-01-22T04:53:36.212Z,99405.44
2023-01-22T04:56:04.203Z,99410.31
2023-01-22T04:58:33.817Z,99414.22
2023-01-22T05:01:01.986Z,99421.28
2023-01-22T05:03:30.251Z,99419.22
2023-01-22T05:05:58.306Z,99425.41
2023-01-22T05:08:26.223Z,99432.50
2023-01-22T05:10:54.934Z,99434.81
2023-01-22T05:13:29.305Z,99431.34
2023-01-22T05:15:58.897Z,99438.94
2023-01-22T05:18:27.515Z,99437.06
2023-01-22T05:20:55.334Z,99433.50
2023-01-22T05:23:26.567Z,99444.00
2023-01-22T05:25:54.963Z,99444.22
2023-01-22T05:28:33.704Z,99441.41
2023-01-22T05:31:12.734Z,99443.25
2023-01-22T05:33:49.263Z,99440.69
2023-01-22T05:36:18.632Z,99449.22
2023-01-22T05:38:47.055Z,99447.50
2023-01-22T05:41:16.138Z,99447.41
2023-01-22T05:43:44.134Z,99441.19
2023-01-22T05:46:19.774Z,99450.97
2023-01-22T05:48:53.434Z,99445.78
2023-01-22T05:51:25.402Z,99447.28
2023-01-22T05:53:54.011Z,99454.66
2023-01-22T05:56:22.067Z,99466.03
2023-01-22T05:58:52.307Z,99451.38
2023-01-22T06:01:21.580Z,99456.66
2023-01-22T06:03:53.370Z,99459.78
2023-01-22T06:06:27.867Z,99456.97
2023-01-22T06:09:02.798Z,99467.31
2023-01-22T06:11:39.214Z,99459.50
2023-01-22T06:14:07.998Z,99466.38
2023-01-22T06:16:37.349Z,99469.56
2023-01-22T06:19:05.282Z,99469.56
2023-01-22T06:22:02.359Z,99477.50
2023-01-22T06:24:40.952Z,99485.28
2023-01-22T06:27:10.385Z,99487.75
2023-01-22T06:29:48.984Z,99480.94
2023-01-22T06:32:18.732Z,99481.66
2023-01-22T06:34:46.641Z,99487.78
2023-01-22T06:37:14.588Z,99488.59
2023-01-22T06:39:44.415Z,99489.56
2023-01-22T06:42:21.794Z,99487.94
2023-01-22T06:44:50.743Z,99499.22
2023-01-22T06:47:21.227Z,99488.38
2023-01-22T06:49:49.080Z,99490.91
2023-01-22T06:52:17.061Z,99490.78
2023-01-22T06:54:44.971Z,99498.81
2023-01-22T06:57:12.946Z,99497.00
2023-01-22T06:59:43.622Z,99497.88
2023-01-22T07:02:17.487Z,99496.88
2023-01-22T07:04:46.833Z,99508.25
2023-01-22T07:07:17.139Z,99502.88
2023-01-22T07:09:45.194Z,99502.81
2023-01-22T07:12:13.018Z,99507.88
2023-01-22T07:14:41.025Z,99505.28
2023-01-22T07:17:08.949Z,99512.09
2023-01-22T07:19:36.849Z,99515.53
2023-01-22T07:22:06.105Z,99525.06
2023-01-22T07:24:33.883Z,99517.22
2023-01-22T07:27:03.786Z,99525.91
2023-01-22T07:29:31.627Z,99526.69
2023-01-22T07:32:01.586Z,99535.47
2023-01-22T07:34:29.541Z,99524.03
2023-01-22T07:36:57.553Z,99530.19
2023-01-22T07:39:27.760Z,99529.44
2023-01-22T07:41:55.694Z,99532.00
2023-01-22T07:44:26.560Z,99530.34
2023-01-22T07:46:54.534Z,99525.25
2023-01-22T07:49:22.355Z,99532.00
2023-01-22T07:51:50.210Z,99540.78
2023-01-22T07:54:20.030Z,99538.78
2023-01-22T07:56:50.466Z,99534.16
2023-01-22T07:59:18.351Z,99537.28
2023-01-22T08:01:46.195Z,99532.84
2023-01-22T08:04:14.094Z,99537.94
2023-01-22T08:06:42.109Z,99540.41
2023-01-22T08:09:10.981Z,99544.66
2023-01-22T08:11:38.795Z,99556.34
2023-01-22T08:14:08.021Z,99556.19
2023-01-22T08:16:36.810Z,99551.56
2023-01-22T08:19:04.699Z,99555.03
2023-01-22T08:21:33.702Z,99556.53
2023-01-22T08:24:01.569Z,99557.69
2023-01-22T08:26:30.098Z,99553.94
2023-01-22T08:28:57.982Z,99569.16
2023-01-22T08:31:28.645Z,99574.63
2023-01-22T08:33:56.776Z,99582.84
2023-01-22T08:36:24.698Z,99585.31
2023-01-22T08:38:52.622Z,99575.59
2023-01-22T08:41:20.771Z,99587.81
2023-01-22T08:43:52.791Z,99587.91
2023-01-22T08:46:20.803Z,99582.34
2023-01-22T08:48:52.414Z,99591.53
2023-01-22T08:51:22.722Z,99585.78
2023-01-22T08:53:50.982Z,99585.72
2023-01-22T08:56:19.883Z,99586.13
2023-01-22T08:58:50.063Z,99589.72
2023-01-22T09:01:19.588Z,99583.28
2023-01-22T09:03:48.752Z,99583.06
2023-01-22T09:06:18.508Z,99587.25
2023-01-22T09:08:46.422Z,99590.31
2023-01-22T09:11:14.228Z,99600.44
2023-01-22T09:13:42.021Z,99599.16
2023-01-22T09:16:11.060Z,99599.09
2023-01-22T09:18:39.451Z,99604.09
2023-01-22T09:21:08.201Z,99601.34
2023-01-22T09:23:37.418Z,99603.97
2023-01-22T09:26:05.471Z,99598.31
2023-01-22T09:28:35.822Z,99594.00
2023-01-22T09:31:04.470Z,99594.63
2023-01-22T09:33:32.392Z,99593.31
2023-01-22T09:36:08.420Z,99591.81
2023-01-22T09:38:38.852Z,99597.13
2023-01-22T09:41:17.069Z,99601.75
2023-01-22T09:43:50.715Z,99604.63
2023-01-22T09:46:24.350Z,99602.97
2023-01-22T09:48:57.675Z,99602.84
2023-01-22T09:51:27.824Z,99605.44
2023-01-22T09:54:00.453Z,99609.13
2023-01-22T09:56:35.795Z,99610.56
2023-01-22T09:59:07.271Z,99615.91
2023-01-22T10:01:36.641Z,99626.16
2023-01-22T10:04:22.873Z,99624.72
2023-01-22T10:06:52.233Z,99620.41
2023-01-22T10:09:21.807Z,99623.69
2023-01-22T10:11:54.944Z,99617.25
2023-01-22T10:14:25.212Z,99618.84
2023-01-22T10:16:53.093Z,99617.22
2023-01-22T10:19:26.009Z,99624.06
2023-01-22T10:21:58.498Z,99630.03
2023-01-22T10:24:28.354Z,99628.56
2023-01-22T10:26:58.924Z,99629.66
2023-01-22T10:29:32.642Z,99628.72
2023-01-22T10:32:02.151Z,99629.06
2023-01-22T10:34:34.432Z,99631.25
2023-01-22T10:37:04.635Z,99635.47
2023-01-22T10:39:41.609Z,99636.06
2023-01-22T10:42:16.911Z,99636.47
2023-01-22T10:44:45.182Z,99638.75
2023-01-22T10:47:20.605Z,99642.06
2023-01-22T10:49:48.831Z,99638.06
2023-01-22T10:52:23.866Z,99642.06
2023-01-22T10:54:56.373Z,99640.44
2023-01-22T10:57:29.255Z,99634.72
2023-01-22T11:00:05.812Z,99637.13
2023-01-22T11:02:36.268Z,99640.53
2023-01-22T11:05:18.480Z,99637.97
2023-01-22T11:07:49.390Z,99636.28
2023-01-22T11:10:23.447Z,99635.91
2023-01-22T11:12:55.047Z,99637.63
2023-01-22T11:15:31.437Z,99636.69
2023-01-22T11:18:04.725Z,99629.06
2023-01-22T11:20:38.998Z,99637.75
2023-01-22T11:23:20.449Z,99634.06
2023-01-22T11:26:01.387Z,99633.25
2023-01-22T11:28:42.529Z,99630.38
2023-01-22T11:31:23.568Z,99635.56
2023-01-22T11:34:11.557Z,99634.41
2023-01-22T11:36:46.393Z,99636.69
2023-01-22T11:39:29.612Z,99637.75
2023-01-22T11:42:04.562Z,99631.31
2023-01-22T11:45:00.339Z,99630.81
2023-01-22T11:47:53.249Z,99631.31
2023-01-22T11:50:29.345Z,99621.69
2023-01-22T11:53:11.523Z,99629.50
2023-01-22T11:55:55.992Z,99621.63
2023-01-22T11:58:37.429Z,99618.28
2023-01-22T12:01:18.948Z,99610.09
2023-01-22T12:04:14.801Z,99606.78
2023-01-22T12:07:03.449Z,99612.66
2023-01-22T12:09:40.093Z,99610.22
2023-01-22T12:12:24.289Z,99604.66
2023-01-22T12:15:23.522Z,99609.38
2023-01-22T12:18:09.234Z,99609.91
2023-01-22T12:20:52.817Z,99612.94
2023-01-22T12:23:27.066Z,99614.75
2023-01-22T12:26:00.036Z,99615.78
2023-01-22T12:28:33.146Z,99608.63
2023-01-22T12:31:09.349Z,99610.22
2023-01-22T12:33:41.855Z,99605.03
2023-01-22T12:36:16.358Z,99601.69
2023-01-22T12:38:51.765Z,99613.25
2023-01-22T12:41:32.554Z,99614.91
2023-01-22T12:44:03.464Z,99626.22
2023-01-22T12:46:42.973Z,99616.22
2023-01-22T12:49:13.098Z,99616.88
2023-01-22T12:51:42.870Z,99613.44
2023-01-22T12:54:19.395Z,99611.25
2023-01-22T12:56:48.214Z,99620.13
2023-01-22T12:59:41.426Z,99622.66
2023-01-22T13:02:35.650Z,99623.75
2023-01-22T13:05:18.911Z,99611.09
2023-01-22T13:07:47.785Z,99615.88
2023-01-22T13:10:33.051Z,99621.09
2023-01-22T13:13:03.485Z,99619.16
2023-01-22T13:15:35.533Z,99624.00
2023-01-22T13:18:08.113Z,99623.50
2023-01-22T13:20:38.562Z,99627.75
2023-01-22T13:23:08.122Z,99634.28
2023-01-22T13:25:36.173Z,99634.78
2023-01-22T13:28:04.675Z,99637.75
2023-01-22T13:30:33.142Z,99634.69
2023-01-22T13:33:13.691Z,99631.38
2023-01-22T13:35:43.255Z,99627.69
2023-01-22T13:38:19.800Z,99630.84
2023-01-22T13:40:51.761Z,99634.34
2023-01-22T13:43:22.795Z,99636.94
2023-01-22T13:45:52.641Z,99636.38
2023-01-22T13:48:24.576Z,99637.84
2023-01-22T13:50:56.715Z,99646.16
2023-01-22T13:53:32.114Z,99643.78
2023-01-22T13:56:01.115Z,99643.25
2023-01-22T13:58:47.855Z,99635.59
2023-01-22T14:01:30.303Z,99638.97
2023-01-22T14:04:04.318Z,99640.53
2023-01-22T14:06:45.051Z,99645.31
2023-01-22T14:09:13.107Z,99634.94
2023-01-22T14:11:41.981Z,99648.78
2023-01-22T14:14:17.556Z,99648.41
2023-01-22T14:16:45.668Z,99641.09
2023-01-22T14:19:15.332Z,99645.88
2023-01-22T14:21:44.303Z,99644.16
2023-01-22T14:24:12.186Z,99646.66
2023-01-22T14:26:40.102Z,99653.72
2023-01-22T14:29:08.797Z,99655.03
2023-01-22T14:31:36.648Z,99653.03
2023-01-22T14:34:05.009Z,99653.91
2023-01-22T14:36:34.343Z,99661.69
2023-01-22T14:39:02.112Z,99657.53
2023-01-22T14:41:29.969Z,99659.63
2023-01-22T14:43:57.843Z,99659.59
2023-01-22T14:46:25.705Z,99661.75
2023-01-22T14:48:53.447Z,99665.81
2023-01-22T14:51:21.305Z,99661.75
2023-01-22T14:53:50.522Z,99659.72
2023-01-22T14:56:18.355Z,99666.00
2023-01-22T14:58:46.787Z,99665.88
2023-01-22T15:01:16.559Z,99674.28
2023-01-22T15:03:44.603Z,99674.06
2023-01-22T15:06:12.446Z,99677.25
2023-01-22T15:08:40.381Z,99681.91
2023-01-22T15:11:09.695Z,99688.59
2023-01-22T15:13:37.660Z,99695.75
2023-01-22T15:16:08.683Z,99692.34
2023-01-22T15:18:37.612Z,99694.75
2023-01-22T15:21:07.750Z,99698.50
2023-01-22T15:23:36.025Z,99698.50
2023-01-22T15:26:09.473Z,99698.56
2023-01-22T15:28:38.708Z,99694.97
2023-01-22T15:31:07.943Z,99697.00
2023-01-22T15:33:36.610Z,99702.09
2023-01-22T15:36:05.890Z,99701.19
2023-01-22T15:38:33.779Z,99700.66
2023-01-22T15:41:06.909Z,99704.03
2023-01-22T15:43:38.388Z,99712.66
2023-01-22T15:46:06.392Z,99706.78
2023-01-22T15:48:35.743Z,99713.66
2023-01-22T15:51:09.437Z,99712.16
2023-01-22T15:53:38.092Z,99713.16
2023-01-22T15:56:07.320Z,99713.78
2023-01-22T15:58:36.032Z,99723.59
2023-01-22T16:01:07.793Z,99723.25
2023-01-22T16:03:35.667Z,99711.72
2023-01-22T16:06:10.374Z,99723.31
2023-01-22T16:08:38.291Z,99716.00
2023-01-22T16:11:06.957Z,99718.56
2023-01-22T16:13:35.063Z,99713.28
2023-01-22T16:16:04.755Z,99724.84
2023-01-22T16:18:36.356Z,99719.34
2023-01-22T16:21:04.936Z,99721.47
2023-01-22T16:23:34.299Z,99715.75
2023-01-22T16:26:06.540Z,99723.72
2023-01-22T16:28:34.410Z,99724.75
2023-01-22T16:31:03.862Z,99720.09
2023-01-22T16:33:35.159Z,99719.97
2023-01-22T16:36:05.227Z,99723.44
2023-01-22T16:38:34.164Z,99730.34
2023-01-22T16:41:27.322Z,99728.22
2023-01-22T16:43:59.342Z,99725.75
2023-01-22T16:46:29.358Z,99734.56
2023-01-22T16:49:01.097Z,99741.00
2023-01-22T16:51:34.314Z,99738.22
2023-01-22T16:54:02.397Z,99739.69
2023-01-22T16:56:30.337Z,99751.66
2023-01-22T16:58:58.201Z,99755.91
2023-01-22T17:01:26.685Z,99757.72
2023-01-22T17:03:54.535Z,99761.19
2023-01-22T17:06:29.456Z,99755.09
2023-01-22T17:08:58.340Z,99758.44
2023-01-22T17:11:26.133Z,99760.84
2023-01-22T17:13:54.050Z,99756.78
2023-01-22T17:16:21.895Z,99764.66
2023-01-22T17:18:49.858Z,99764.44
2023-01-22T17:21:19.582Z,99762.72
2023-01-22T17:23:49.111Z,99776.09
2023-01-22T17:26:18.763Z,99766.94
2023-01-22T17:28:46.681Z,99770.69
2023-01-22T17:31:17.004Z,99764.75
2023-01-22T17:33:44.997Z,99767.22
2023-01-22T17:36:14.893Z,99774.31
2023-01-22T17:38:43.391Z,99775.81
2023-01-22T17:41:15.994Z,99780.03
2023-01-22T17:43:45.408Z,99775.00
2023-01-22T17:46:15.268Z,99786.03
2023-01-22T17:48:44.794Z,99790.16
2023-01-22T17:51:17.022Z,99787.41
2023-01-22T17:53:46.636Z,99789.00
2023-01-22T17:56:18.414Z,99788.25
2023-01-22T17:58:50.010Z,99785.50
2023-01-22T18:01:19.732Z,99795.50
2023-01-22T18:03:48.860Z,99800.59
2023-01-22T18:06:17.646Z,99794.22
2023-01-22T18:08:45.804Z,99800.66
2023-01-22T18:11:16.895Z,99809.28
2023-01-22T18:13:45.735Z,99809.91
2023-01-22T18:16:16.008Z,99805.06
2023-01-22T18:18:44.656Z,99811.41
2023-01-22T18:21:16.679Z,99812.81
2023-01-22T18:23:45.039Z,99811.88
2023-01-22T18:26:14.023Z,99816.06
2023-01-22T18:28:43.463Z,99811.97
2023-01-22T18:31:15.492Z,99826.25
2023-01-22T18:33:48.148Z,99833.34
2023-01-22T18:36:17.955Z,99824.22
2023-01-22T18:38:46.755Z,99835.53
2023-01-22T18:41:18.976Z,99835.34
2023-01-22T18:43:53.437Z,99832.56
2023-01-22T18:46:22.099Z,99830.94
2023-01-22T18:53:09.803Z,99832.50
2023-01-22T18:55:38.431Z,99838.41
2023-01-22T18:58:11.356Z,99844.50
2023-01-22T19:00:42.134Z,99843.00
2023-01-22T19:03:10.700Z,99846.97
2023-01-22T19:05:40.959Z,99836.66
2023-01-22T19:08:09.170Z,99844.38
2023-01-22T19:10:37.023Z,99849.47
2023-01-22T19:13:04.906Z,99856.59
2023-01-22T19:15:34.275Z,99855.28
2023-01-22T19:18:03.597Z,99861.75
2023-01-22T19:20:31.435Z,99852.19
2023-01-22T19:23:00.173Z,99850.84
2023-01-22T19:25:28.121Z,99847.16
2023-01-22T19:27:56.446Z,99854.97
2023-01-22T19:30:24.668Z,99858.75
2023-01-22T19:32:54.406Z,99856.88
2023-01-22T19:35:24.146Z,99855.13
2023-01-22T19:37:53.157Z,99855.66
2023-01-22T19:40:21.863Z,99860.97
2023-01-22T19:42:49.738Z,99862.72
2023-01-22T19:45:18.059Z,99869.13
2023-01-22T19:47:46.141Z,99866.84
2023-01-22T19:50:13.904Z,99864.13
2023-01-22T19:52:43.151Z,99877.91
2023-01-22T19:55:13.145Z,99864.34
2023-01-22T19:57:43.265Z,99865.00
2023-01-22T20:00:12.851Z,99872.78
2023-01-22T20:02:41.142Z,99872.19
2023-01-22T20:05:09.377Z,99872.88
2023-01-22T20:07:37.236Z,99881.31
2023-01-22T20:10:07.349Z,99869.41
2023-01-22T20:12:35.107Z,99874.28
2023-01-22T20:15:02.919Z,99872.06
2023-01-22T20:17:30.857Z,99870.84
2023-01-22T20:19:58.729Z,99878.09
2023-01-22T20:22:26.539Z,99872.88
2023-01-22T20:24:54.528Z,99872.66
2023-01-22T20:27:23.821Z,99878.25
2023-01-22T20:29:51.621Z,99884.53
2023-01-22T20:32:20.458Z,99883.25
2023-01-22T20:34:48.980Z,99894.16
2023-01-22T20:37:16.867Z,99888.78
2023-01-22T20:39:45.694Z,99882.53
2023-01-22T20:42:13.557Z,99879.13
2023-01-22T20:44:45.659Z,99885.38
2023-01-22T20:47:13.808Z,99894.88
2023-01-22T20:49:41.690Z,99889.00
2023-01-22T20:52:09.590Z,99888.03
2023-01-22T20:54:46.021Z,99887.66
2023-01-22T20:57:22.994Z,99892.72
2023-01-22T20:59:52.369Z,99895.34
2023-01-22T21:02:20.785Z,99895.47
2023-01-22T21:04:52.666Z,99896.28
2023-01-22T21:07:20.989Z,99891.03
2023-01-22T21:09:50.412Z,99901.16
2023-01-22T21:12:18.397Z,99902.69
2023-01-22T21:14:46.227Z,99895.22
2023-01-22T21:17:18.793Z,99899.66
2023-01-22T21:19:46.601Z,99890.97
2023-01-22T21:22:14.446Z,99899.47
2023-01-22T21:24:45.038Z,99899.47
2023-01-22T21:27:12.878Z,99896.19
2023-01-22T21:29:40.683Z,99900.09
2023-01-22T21:32:08.597Z,99892.88
2023-01-22T21:34:37.871Z,99899.88
2023-01-22T21:37:08.027Z,99909.47
2023-01-22T21:39:44.876Z,99903.66
2023-01-22T21:42:30.646Z,99908.94
2023-01-22T21:45:16.906Z,99905.34
2023-01-22T21:47:44.745Z,99910.25
2023-01-22T21:50:13.943Z,99904.88
2023-01-22T21:52:45.502Z,99906.50
2023-01-22T21:55:14.893Z,99911.66
2023-01-22T21:57:44.140Z,99915.06
2023-01-22T22:00:13.777Z,99910.09
2023-01-22T22:02:41.655Z,99905.69
2023-01-22T22:05:10.885Z,99909.81
2023-01-22T22:07:43.761Z,99916.81
2023-01-22T22:10:14.737Z,99918.44
2023-01-22T22:12:43.195Z,99915.84
2023-01-22T22:15:12.117Z,99925.75
2023-01-22T22:17:40.199Z,99923.88
2023-01-22T22:20:09.970Z,99917.28
2023-01-22T22:23:04.043Z,99925.97
2023-01-22T22:25:32.630Z,99923.44
2023-01-22T22:28:00.687Z,99927.66
2023-01-22T22:30:28.943Z,99929.03
2023-01-22T22:32:59.924Z,99927.34
2023-01-22T22:35:27.764Z,99925.34
2023-01-22T22:37:55.626Z,99927.19
2023-01-22T22:40:25.131Z,99938.56
2023-01-22T22:42:55.427Z,99935.44
2023-01-22T22:45:23.277Z,99944.91
2023-01-22T22:47:51.102Z,99937.03
2023-01-22T22:50:19.305Z,99937.34
2023-01-22T22:52:47.382Z,99946.94
2023-01-22T22:55:15.334Z,99938.75
2023-01-22T22:57:49.420Z,99947.25
2023-01-22T23:00:18.376Z,99947.81
2023-01-22T23:02:46.380Z,99953.13
2023-01-22T23:05:14.325Z,99955.53
2023-01-22T23:07:42.218Z,99941.22
2023-01-22T23:10:28.654Z,99942.84
2023-01-22T23:12:59.946Z,99942.22
2023-01-22T23:15:29.562Z,99949.31
2023-01-22T23:17:58.797Z,99942.16
2023-01-22T23:20:28.168Z,99939.28
2023-01-22T23:22:57.245Z,99939.56
2023-01-22T23:25:25.576Z,99939.47
2023-01-22T23:27:55.657Z,99933.22
2023-01-22T23:30:26.572Z,99934.03
2023-01-22T23:32:54.455Z,99934.78
2023-01-22T23:35:22.411Z,99936.47
2023-01-22T23:37:50.273Z,99936.41
2023-01-22T23:40:18.703Z,99930.72
2023-01-22T23:42:49.039Z,99935.38
2023-01-22T23:45:17.210Z,99937.63
2023-01-22T23:47:46.438Z,99932.75
2023-01-22T23:50:15.831Z,99933.59
2023-01-22T23:52:43.867Z,99932.88
2023-01-22T23:55:12.236Z,99930.00
2023-01-22T23:57:40.383Z,99933.25
